sensor_id;sensor_type;location;lat;lon;timestamp;P1;durP1;ratioP1;P2;durP2;ratioP2
60243;SDS011;46106;51.468;5.814;2024-02-04T00:01:43;29.48;;;16.48;;
60243;SDS011;46106;51.468;5.814;2024-02-04T00:04:08;27.67;;;15.80;;
60243;SDS011;46106;51.468;5.814;2024-02-04T00:06:35;27.95;;;15.95;;
60243;SDS011;46106;51.468;5.814;2024-02-04T00:09:00;27.10;;;16.33;;
60243;SDS011;46106;51.468;5.814;2024-02-04T00:11:26;27.98;;;15.40;;
60243;SDS011;46106;51.468;5.814;2024-02-04T00:13:52;28.27;;;15.85;;
60243;SDS011;46106;51.468;5.814;2024-02-04T00:16:17;28.20;;;16.05;;
60243;SDS011;46106;51.468;5.814;2024-02-04T00:18:43;26.20;;;15.68;;
60243;SDS011;46106;51.468;5.814;2024-02-04T00:21:08;26.35;;;15.13;;
60243;SDS011;46106;51.468;5.814;2024-02-04T00:23:34;29.17;;;15.15;;
60243;SDS011;46106;51.468;5.814;2024-02-04T00:25:59;25.70;;;16.15;;
60243;SDS011;46106;51.468;5.814;2024-02-04T00:28:25;22.88;;;14.77;;
60243;SDS011;46106;51.468;5.814;2024-02-04T00:30:53;24.10;;;13.57;;
60243;SDS011;46106;51.468;5.814;2024-02-04T00:33:21;24.95;;;13.43;;
60243;SDS011;46106;51.468;5.814;2024-02-04T00:35:47;23.98;;;14.65;;
60243;SDS011;46106;51.468;5.814;2024-02-04T00:38:13;20.95;;;12.40;;
60243;SDS011;46106;51.468;5.814;2024-02-04T00:40:38;24.45;;;12.80;;
60243;SDS011;46106;51.468;5.814;2024-02-04T00:43:04;22.63;;;13.27;;
60243;SDS011;46106;51.468;5.814;2024-02-04T00:45:29;19.92;;;11.52;;
60243;SDS011;46106;51.468;5.814;2024-02-04T00:47:56;17.60;;;10.98;;
60243;SDS011;46106;51.468;5.814;2024-02-04T00:50:22;19.80;;;12.23;;
60243;SDS011;46106;51.468;5.814;2024-02-04T00:52:47;21.23;;;12.05;;
60243;SDS011;46106;51.468;5.814;2024-02-04T00:55:14;17.88;;;11.48;;
60243;SDS011;46106;51.468;5.814;2024-02-04T00:57:40;20.65;;;12.30;;
60243;SDS011;46106;51.468;5.814;2024-02-04T01:00:05;16.08;;;11.32;;
60243;SDS011;46106;51.468;5.814;2024-02-04T01:02:32;19.25;;;11.32;;
60243;SDS011;46106;51.468;5.814;2024-02-04T01:04:59;16.95;;;9.75;;
60243;SDS011;46106;51.468;5.814;2024-02-04T01:07:24;19.88;;;10.18;;
60243;SDS011;46106;51.468;5.814;2024-02-04T01:09:51;14.65;;;10.73;;
60243;SDS011;46106;51.468;5.814;2024-02-04T01:12:16;17.33;;;10.02;;
60243;SDS011;46106;51.468;5.814;2024-02-04T01:14:42;22.13;;;11.35;;
60243;SDS011;46106;51.468;5.814;2024-02-04T01:17:08;20.90;;;10.65;;
60243;SDS011;46106;51.468;5.814;2024-02-04T01:19:33;20.40;;;11.60;;
60243;SDS011;46106;51.468;5.814;2024-02-04T01:21:59;20.90;;;11.43;;
60243;SDS011;46106;51.468;5.814;2024-02-04T01:24:24;20.83;;;11.70;;
60243;SDS011;46106;51.468;5.814;2024-02-04T01:26:50;21.83;;;12.88;;
60243;SDS011;46106;51.468;5.814;2024-02-04T01:29:15;21.70;;;12.23;;
60243;SDS011;46106;51.468;5.814;2024-02-04T01:31:41;24.92;;;13.48;;
60243;SDS011;46106;51.468;5.814;2024-02-04T01:34:07;25.58;;;13.65;;
60243;SDS011;46106;51.468;5.814;2024-02-04T01:36:32;28.67;;;14.68;;
60243;SDS011;46106;51.468;5.814;2024-02-04T01:38:57;28.00;;;15.63;;
60243;SDS011;46106;51.468;5.814;2024-02-04T01:41:24;26.70;;;14.85;;
60243;SDS011;46106;51.468;5.814;2024-02-04T01:43:52;29.35;;;15.88;;
60243;SDS011;46106;51.468;5.814;2024-02-04T01:46:20;26.77;;;15.27;;
60243;SDS011;46106;51.468;5.814;2024-02-04T01:48:48;29.15;;;16.08;;
60243;SDS011;46106;51.468;5.814;2024-02-04T01:51:14;25.00;;;14.32;;
60243;SDS011;46106;51.468;5.814;2024-02-04T01:53:42;28.38;;;16.83;;
60243;SDS011;46106;51.468;5.814;2024-02-04T01:56:11;35.50;;;15.52;;
60243;SDS011;46106;51.468;5.814;2024-02-04T01:58:37;24.98;;;14.93;;
60243;SDS011;46106;51.468;5.814;2024-02-04T02:01:03;27.13;;;14.82;;
60243;SDS011;46106;51.468;5.814;2024-02-04T02:03:32;32.53;;;15.80;;
60243;SDS011;46106;51.468;5.814;2024-02-04T02:05:58;27.13;;;14.85;;
60243;SDS011;46106;51.468;5.814;2024-02-04T02:08:26;25.98;;;15.20;;
60243;SDS011;46106;51.468;5.814;2024-02-04T02:10:56;26.33;;;13.65;;
60243;SDS011;46106;51.468;5.814;2024-02-04T02:13:29;24.42;;;14.73;;
60243;SDS011;46106;51.468;5.814;2024-02-04T02:16:30;27.50;;;15.23;;
60243;SDS011;46106;51.468;5.814;2024-02-04T02:18:52;26.92;;;14.55;;
60243;SDS011;46106;51.468;5.814;2024-02-04T02:24:16;24.92;;;14.85;;
60243;SDS011;46106;51.468;5.814;2024-02-04T02:26:59;22.02;;;13.75;;
60243;SDS011;46106;51.468;5.814;2024-02-04T02:29:24;24.35;;;14.52;;
60243;SDS011;46106;51.468;5.814;2024-02-04T02:31:55;25.08;;;14.55;;
60243;SDS011;46106;51.468;5.814;2024-02-04T02:34:21;24.25;;;15.10;;
60243;SDS011;46106;51.468;5.814;2024-02-04T02:36:50;23.98;;;14.23;;
60243;SDS011;46106;51.468;5.814;2024-02-04T02:39:25;23.67;;;14.30;;
60243;SDS011;46106;51.468;5.814;2024-02-04T02:41:57;26.52;;;14.57;;
60243;SDS011;46106;51.468;5.814;2024-02-04T02:44:25;22.83;;;14.38;;
60243;SDS011;46106;51.468;5.814;2024-02-04T02:46:54;26.83;;;15.23;;
60243;SDS011;46106;51.468;5.814;2024-02-04T02:49:21;25.33;;;16.00;;
60243;SDS011;46106;51.468;5.814;2024-02-04T02:51:46;31.10;;;16.70;;
60243;SDS011;46106;51.468;5.814;2024-02-04T02:54:12;36.63;;;18.80;;
60243;SDS011;46106;51.468;5.814;2024-02-04T02:56:38;36.50;;;16.95;;
60243;SDS011;46106;51.468;5.814;2024-02-04T02:59:03;30.55;;;17.25;;
60243;SDS011;46106;51.468;5.814;2024-02-04T03:01:30;43.15;;;18.33;;
60243;SDS011;46106;51.468;5.814;2024-02-04T03:03:57;39.13;;;19.15;;
60243;SDS011;46106;51.468;5.814;2024-02-04T03:06:22;34.20;;;20.05;;
60243;SDS011;46106;51.468;5.814;2024-02-04T03:08:48;33.72;;;17.77;;
60243;SDS011;46106;51.468;5.814;2024-02-04T03:11:13;37.10;;;19.02;;
60243;SDS011;46106;51.468;5.814;2024-02-04T03:13:39;33.97;;;17.33;;
60243;SDS011;46106;51.468;5.814;2024-02-04T03:16:09;31.50;;;18.48;;
60243;SDS011;46106;51.468;5.814;2024-02-04T03:18:36;29.25;;;18.17;;
60243;SDS011;46106;51.468;5.814;2024-02-04T03:21:04;34.15;;;17.85;;
60243;SDS011;46106;51.468;5.814;2024-02-04T03:23:29;33.90;;;18.95;;
60243;SDS011;46106;51.468;5.814;2024-02-04T03:25:55;35.80;;;17.15;;
60243;SDS011;46106;51.468;5.814;2024-02-04T03:28:21;32.60;;;17.27;;
60243;SDS011;46106;51.468;5.814;2024-02-04T03:30:47;27.23;;;15.73;;
60243;SDS011;46106;51.468;5.814;2024-02-04T03:33:13;33.53;;;16.33;;
60243;SDS011;46106;51.468;5.814;2024-02-04T03:35:38;31.88;;;15.85;;
60243;SDS011;46106;51.468;5.814;2024-02-04T03:38:04;30.15;;;16.02;;
60243;SDS011;46106;51.468;5.814;2024-02-04T03:40:30;32.10;;;15.95;;
60243;SDS011;46106;51.468;5.814;2024-02-04T03:42:58;25.73;;;14.90;;
60243;SDS011;46106;51.468;5.814;2024-02-04T03:45:24;25.60;;;15.27;;
60243;SDS011;46106;51.468;5.814;2024-02-04T03:47:49;29.85;;;14.57;;
60243;SDS011;46106;51.468;5.814;2024-02-04T03:50:14;30.25;;;14.07;;
60243;SDS011;46106;51.468;5.814;2024-02-04T03:52:40;30.73;;;14.50;;
60243;SDS011;46106;51.468;5.814;2024-02-04T03:55:06;32.03;;;16.10;;
60243;SDS011;46106;51.468;5.814;2024-02-04T03:57:32;29.08;;;14.65;;
60243;SDS011;46106;51.468;5.814;2024-02-04T03:59:59;33.13;;;15.02;;
60243;SDS011;46106;51.468;5.814;2024-02-04T04:02:24;28.27;;;14.70;;
60243;SDS011;46106;51.468;5.814;2024-02-04T04:04:49;27.65;;;13.23;;
60243;SDS011;46106;51.468;5.814;2024-02-04T04:07:16;27.02;;;13.75;;
60243;SDS011;46106;51.468;5.814;2024-02-04T04:09:42;39.03;;;15.18;;
60243;SDS011;46106;51.468;5.814;2024-02-04T04:12:08;29.08;;;13.60;;
60243;SDS011;46106;51.468;5.814;2024-02-04T04:14:34;31.85;;;13.13;;
60243;SDS011;46106;51.468;5.814;2024-02-04T04:17:00;34.78;;;13.43;;
60243;SDS011;46106;51.468;5.814;2024-02-04T04:19:26;32.40;;;14.10;;
60243;SDS011;46106;51.468;5.814;2024-02-04T04:21:52;34.17;;;13.70;;
60243;SDS011;46106;51.468;5.814;2024-02-04T04:24:18;27.85;;;12.80;;
60243;SDS011;46106;51.468;5.814;2024-02-04T04:26:44;27.48;;;14.02;;
60243;SDS011;46106;51.468;5.814;2024-02-04T04:29:10;23.70;;;12.95;;
60243;SDS011;46106;51.468;5.814;2024-02-04T04:31:35;27.20;;;13.35;;
60243;SDS011;46106;51.468;5.814;2024-02-04T04:34:01;32.30;;;13.05;;
60243;SDS011;46106;51.468;5.814;2024-02-04T04:36:26;27.00;;;12.15;;
60243;SDS011;46106;51.468;5.814;2024-02-04T04:38:51;25.23;;;12.65;;
60243;SDS011;46106;51.468;5.814;2024-02-04T04:41:17;28.30;;;13.10;;
60243;SDS011;46106;51.468;5.814;2024-02-04T04:43:42;29.58;;;12.48;;
60243;SDS011;46106;51.468;5.814;2024-02-04T04:46:08;23.48;;;13.38;;
60243;SDS011;46106;51.468;5.814;2024-02-04T04:48:35;32.30;;;13.32;;
60243;SDS011;46106;51.468;5.814;2024-02-04T04:51:00;24.40;;;12.05;;
60243;SDS011;46106;51.468;5.814;2024-02-04T04:53:26;28.85;;;12.57;;
60243;SDS011;46106;51.468;5.814;2024-02-04T04:55:51;21.73;;;13.23;;
60243;SDS011;46106;51.468;5.814;2024-02-04T04:58:17;26.50;;;12.15;;
60243;SDS011;46106;51.468;5.814;2024-02-04T05:00:42;26.05;;;12.30;;
60243;SDS011;46106;51.468;5.814;2024-02-04T05:03:08;31.65;;;13.40;;
60243;SDS011;46106;51.468;5.814;2024-02-04T05:05:36;33.08;;;13.70;;
60243;SDS011;46106;51.468;5.814;2024-02-04T05:08:02;33.42;;;14.73;;
60243;SDS011;46106;51.468;5.814;2024-02-04T05:10:28;29.02;;;13.65;;
60243;SDS011;46106;51.468;5.814;2024-02-04T05:12:54;31.55;;;14.57;;
60243;SDS011;46106;51.468;5.814;2024-02-04T05:15:19;27.38;;;14.82;;
60243;SDS011;46106;51.468;5.814;2024-02-04T05:17:46;27.95;;;14.15;;
60243;SDS011;46106;51.468;5.814;2024-02-04T05:20:11;33.45;;;15.68;;
60243;SDS011;46106;51.468;5.814;2024-02-04T05:22:38;38.35;;;17.63;;
60243;SDS011;46106;51.468;5.814;2024-02-04T05:25:03;38.10;;;17.52;;
60243;SDS011;46106;51.468;5.814;2024-02-04T05:27:31;34.33;;;16.92;;
60243;SDS011;46106;51.468;5.814;2024-02-04T05:29:56;38.67;;;18.70;;
60243;SDS011;46106;51.468;5.814;2024-02-04T05:32:23;37.25;;;19.17;;
60243;SDS011;46106;51.468;5.814;2024-02-04T05:34:48;45.88;;;19.92;;
60243;SDS011;46106;51.468;5.814;2024-02-04T05:37:14;49.92;;;21.75;;
60243;SDS011;46106;51.468;5.814;2024-02-04T05:39:39;46.58;;;23.05;;
60243;SDS011;46106;51.468;5.814;2024-02-04T05:42:04;51.83;;;25.23;;
60243;SDS011;46106;51.468;5.814;2024-02-04T05:44:30;51.80;;;23.23;;
60243;SDS011;46106;51.468;5.814;2024-02-04T05:46:55;43.22;;;24.67;;
60243;SDS011;46106;51.468;5.814;2024-02-04T05:49:21;49.13;;;25.38;;
60243;SDS011;46106;51.468;5.814;2024-02-04T05:51:46;48.85;;;25.48;;
60243;SDS011;46106;51.468;5.814;2024-02-04T05:54:12;48.38;;;26.70;;
60243;SDS011;46106;51.468;5.814;2024-02-04T05:56:38;52.72;;;26.33;;
60243;SDS011;46106;51.468;5.814;2024-02-04T05:59:04;51.08;;;26.40;;
60243;SDS011;46106;51.468;5.814;2024-02-04T06:01:32;48.10;;;27.00;;
60243;SDS011;46106;51.468;5.814;2024-02-04T06:03:59;54.85;;;28.75;;
60243;SDS011;46106;51.468;5.814;2024-02-04T06:06:24;51.83;;;27.17;;
60243;SDS011;46106;51.468;5.814;2024-02-04T06:08:51;51.08;;;28.15;;
60243;SDS011;46106;51.468;5.814;2024-02-04T06:11:17;48.40;;;27.20;;
60243;SDS011;46106;51.468;5.814;2024-02-04T06:13:43;55.05;;;28.85;;
60243;SDS011;46106;51.468;5.814;2024-02-04T06:16:10;51.95;;;28.50;;
60243;SDS011;46106;51.468;5.814;2024-02-04T06:18:40;63.08;;;30.08;;
60243;SDS011;46106;51.468;5.814;2024-02-04T06:21:07;59.67;;;29.95;;
60243;SDS011;46106;51.468;5.814;2024-02-04T06:23:32;59.30;;;30.55;;
60243;SDS011;46106;51.468;5.814;2024-02-04T06:25:58;59.38;;;29.00;;
60243;SDS011;46106;51.468;5.814;2024-02-04T06:28:24;59.53;;;28.98;;
60243;SDS011;46106;51.468;5.814;2024-02-04T06:30:51;53.25;;;26.52;;
60243;SDS011;46106;51.468;5.814;2024-02-04T06:33:18;55.45;;;26.88;;
60243;SDS011;46106;51.468;5.814;2024-02-04T06:35:44;47.92;;;25.02;;
60243;SDS011;46106;51.468;5.814;2024-02-04T06:38:09;45.70;;;22.95;;
60243;SDS011;46106;51.468;5.814;2024-02-04T06:40:36;53.47;;;24.58;;
60243;SDS011;46106;51.468;5.814;2024-02-04T06:43:02;53.90;;;26.33;;
60243;SDS011;46106;51.468;5.814;2024-02-04T06:45:29;55.08;;;26.35;;
60243;SDS011;46106;51.468;5.814;2024-02-04T06:47:54;55.90;;;29.33;;
60243;SDS011;46106;51.468;5.814;2024-02-04T06:50:20;54.15;;;25.42;;
60243;SDS011;46106;51.468;5.814;2024-02-04T06:52:45;43.67;;;23.00;;
60243;SDS011;46106;51.468;5.814;2024-02-04T06:55:11;50.72;;;24.58;;
60243;SDS011;46106;51.468;5.814;2024-02-04T06:57:37;46.53;;;23.35;;
60243;SDS011;46106;51.468;5.814;2024-02-04T07:00:05;42.25;;;23.35;;
60243;SDS011;46106;51.468;5.814;2024-02-04T07:02:33;44.42;;;22.77;;
60243;SDS011;46106;51.468;5.814;2024-02-04T07:05:00;42.00;;;22.85;;
60243;SDS011;46106;51.468;5.814;2024-02-04T07:07:28;42.55;;;22.75;;
60243;SDS011;46106;51.468;5.814;2024-02-04T07:09:53;42.53;;;20.50;;
60243;SDS011;46106;51.468;5.814;2024-02-04T07:12:18;44.55;;;21.73;;
60243;SDS011;46106;51.468;5.814;2024-02-04T07:14:44;41.53;;;21.33;;
60243;SDS011;46106;51.468;5.814;2024-02-04T07:17:09;42.63;;;22.60;;
60243;SDS011;46106;51.468;5.814;2024-02-04T07:19:37;49.65;;;24.00;;
60243;SDS011;46106;51.468;5.814;2024-02-04T07:22:03;42.38;;;23.35;;
60243;SDS011;46106;51.468;5.814;2024-02-04T07:24:28;48.08;;;23.98;;
60243;SDS011;46106;51.468;5.814;2024-02-04T07:26:54;50.83;;;25.85;;
60243;SDS011;46106;51.468;5.814;2024-02-04T07:29:19;41.88;;;23.02;;
60243;SDS011;46106;51.468;5.814;2024-02-04T07:31:46;48.20;;;27.08;;
60243;SDS011;46106;51.468;5.814;2024-02-04T07:34:12;51.05;;;25.42;;
60243;SDS011;46106;51.468;5.814;2024-02-04T07:36:38;47.10;;;26.48;;
60243;SDS011;46106;51.468;5.814;2024-02-04T07:39:04;44.90;;;25.75;;
60243;SDS011;46106;51.468;5.814;2024-02-04T07:41:30;41.90;;;24.35;;
60243;SDS011;46106;51.468;5.814;2024-02-04T07:43:56;45.50;;;23.98;;
60243;SDS011;46106;51.468;5.814;2024-02-04T07:46:22;46.88;;;25.10;;
60243;SDS011;46106;51.468;5.814;2024-02-04T07:48:47;43.42;;;26.38;;
60243;SDS011;46106;51.468;5.814;2024-02-04T07:51:13;49.22;;;26.90;;
60243;SDS011;46106;51.468;5.814;2024-02-04T07:53:40;50.58;;;26.27;;
60243;SDS011;46106;51.468;5.814;2024-02-04T07:56:07;52.58;;;25.98;;
60243;SDS011;46106;51.468;5.814;2024-02-04T07:58:33;55.10;;;26.15;;
60243;SDS011;46106;51.468;5.814;2024-02-04T08:00:58;48.20;;;24.42;;
60243;SDS011;46106;51.468;5.814;2024-02-04T08:03:24;52.38;;;26.88;;
60243;SDS011;46106;51.468;5.814;2024-02-04T08:05:49;43.45;;;23.45;;
60243;SDS011;46106;51.468;5.814;2024-02-04T08:08:15;40.83;;;23.13;;
60243;SDS011;46106;51.468;5.814;2024-02-04T08:10:44;45.65;;;23.25;;
60243;SDS011;46106;51.468;5.814;2024-02-04T08:13:09;41.97;;;22.30;;
60243;SDS011;46106;51.468;5.814;2024-02-04T08:15:35;35.72;;;20.83;;
60243;SDS011;46106;51.468;5.814;2024-02-04T08:18:01;39.95;;;22.38;;
60243;SDS011;46106;51.468;5.814;2024-02-04T08:20:27;31.63;;;19.77;;
60243;SDS011;46106;51.468;5.814;2024-02-04T08:22:53;37.38;;;20.85;;
60243;SDS011;46106;51.468;5.814;2024-02-04T08:25:19;34.95;;;19.42;;
60243;SDS011;46106;51.468;5.814;2024-02-04T08:27:44;36.08;;;18.95;;
60243;SDS011;46106;51.468;5.814;2024-02-04T08:30:11;35.05;;;19.92;;
60243;SDS011;46106;51.468;5.814;2024-02-04T08:32:38;37.10;;;19.20;;
60243;SDS011;46106;51.468;5.814;2024-02-04T08:35:04;35.42;;;19.73;;
60243;SDS011;46106;51.468;5.814;2024-02-04T08:37:30;28.92;;;18.70;;
60243;SDS011;46106;51.468;5.814;2024-02-04T08:39:56;32.95;;;19.08;;
60243;SDS011;46106;51.468;5.814;2024-02-04T08:42:22;35.70;;;18.67;;
60243;SDS011;46106;51.468;5.814;2024-02-04T08:44:48;33.90;;;19.10;;
60243;SDS011;46106;51.468;5.814;2024-02-04T08:47:13;31.98;;;18.00;;
60243;SDS011;46106;51.468;5.814;2024-02-04T08:49:41;34.85;;;18.73;;
60243;SDS011;46106;51.468;5.814;2024-02-04T08:52:07;39.28;;;19.63;;
60243;SDS011;46106;51.468;5.814;2024-02-04T08:54:37;42.65;;;19.30;;
60243;SDS011;46106;51.468;5.814;2024-02-04T08:57:02;36.38;;;17.63;;
60243;SDS011;46106;51.468;5.814;2024-02-04T08:59:28;29.95;;;17.20;;
60243;SDS011;46106;51.468;5.814;2024-02-04T09:01:53;35.72;;;17.92;;
60243;SDS011;46106;51.468;5.814;2024-02-04T09:04:19;31.92;;;17.63;;
60243;SDS011;46106;51.468;5.814;2024-02-04T09:06:44;34.35;;;17.23;;
60243;SDS011;46106;51.468;5.814;2024-02-04T09:09:10;28.42;;;16.38;;
60243;SDS011;46106;51.468;5.814;2024-02-04T09:11:35;31.52;;;17.25;;
60243;SDS011;46106;51.468;5.814;2024-02-04T09:14:01;29.38;;;16.52;;
60243;SDS011;46106;51.468;5.814;2024-02-04T09:16:27;37.67;;;19.33;;
60243;SDS011;46106;51.468;5.814;2024-02-04T09:18:53;31.35;;;17.30;;
60243;SDS011;46106;51.468;5.814;2024-02-04T09:21:18;36.70;;;19.95;;
60243;SDS011;46106;51.468;5.814;2024-02-04T09:23:45;31.15;;;19.92;;
60243;SDS011;46106;51.468;5.814;2024-02-04T09:26:11;33.20;;;19.50;;
60243;SDS011;46106;51.468;5.814;2024-02-04T09:28:36;38.97;;;21.17;;
60243;SDS011;46106;51.468;5.814;2024-02-04T09:31:03;33.60;;;21.17;;
60243;SDS011;46106;51.468;5.814;2024-02-04T09:33:35;31.50;;;18.57;;
60243;SDS011;46106;51.468;5.814;2024-02-04T09:36:03;26.95;;;18.52;;
60243;SDS011;46106;51.468;5.814;2024-02-04T09:38:30;29.52;;;20.05;;
60243;SDS011;46106;51.468;5.814;2024-02-04T09:40:55;29.35;;;18.02;;
60243;SDS011;46106;51.468;5.814;2024-02-04T09:43:20;27.83;;;18.85;;
60243;SDS011;46106;51.468;5.814;2024-02-04T09:45:47;30.58;;;18.85;;
60243;SDS011;46106;51.468;5.814;2024-02-04T09:48:14;34.60;;;19.17;;
60243;SDS011;46106;51.468;5.814;2024-02-04T09:50:48;33.40;;;17.65;;
60243;SDS011;46106;51.468;5.814;2024-02-04T09:53:15;24.35;;;15.38;;
60243;SDS011;46106;51.468;5.814;2024-02-04T09:55:52;27.55;;;16.48;;
60243;SDS011;46106;51.468;5.814;2024-02-04T09:58:21;29.05;;;17.95;;
60243;SDS011;46106;51.468;5.814;2024-02-04T10:00:48;33.40;;;16.20;;
60243;SDS011;46106;51.468;5.814;2024-02-04T10:03:16;27.42;;;16.27;;
60243;SDS011;46106;51.468;5.814;2024-02-04T10:05:42;30.92;;;15.93;;
60243;SDS011;46106;51.468;5.814;2024-02-04T10:08:09;28.27;;;15.73;;
60243;SDS011;46106;51.468;5.814;2024-02-04T10:10:35;25.45;;;14.20;;
60243;SDS011;46106;51.468;5.814;2024-02-04T10:13:05;24.77;;;12.73;;
60243;SDS011;46106;51.468;5.814;2024-02-04T10:15:32;26.20;;;13.70;;
60243;SDS011;46106;51.468;5.814;2024-02-04T10:17:59;21.50;;;12.35;;
60243;SDS011;46106;51.468;5.814;2024-02-04T10:20:28;23.05;;;12.77;;
60243;SDS011;46106;51.468;5.814;2024-02-04T10:22:53;24.02;;;13.27;;
60243;SDS011;46106;51.468;5.814;2024-02-04T10:25:20;23.17;;;13.23;;
60243;SDS011;46106;51.468;5.814;2024-02-04T10:27:46;23.15;;;12.98;;
60243;SDS011;46106;51.468;5.814;2024-02-04T10:30:12;27.05;;;15.38;;
60243;SDS011;46106;51.468;5.814;2024-02-04T10:32:43;25.92;;;14.30;;
60243;SDS011;46106;51.468;5.814;2024-02-04T10:35:09;27.30;;;14.18;;
60243;SDS011;46106;51.468;5.814;2024-02-04T10:37:35;34.58;;;14.38;;
60243;SDS011;46106;51.468;5.814;2024-02-04T10:40:03;27.92;;;13.88;;
60243;SDS011;46106;51.468;5.814;2024-02-04T10:42:29;28.80;;;14.18;;
60243;SDS011;46106;51.468;5.814;2024-02-04T10:44:57;22.40;;;12.55;;
60243;SDS011;46106;51.468;5.814;2024-02-04T10:47:25;24.50;;;12.65;;
60243;SDS011;46106;51.468;5.814;2024-02-04T10:49:58;25.10;;;11.35;;
60243;SDS011;46106;51.468;5.814;2024-02-04T10:52:28;19.90;;;11.55;;
60243;SDS011;46106;51.468;5.814;2024-02-04T10:55:02;16.63;;;10.35;;
60243;SDS011;46106;51.468;5.814;2024-02-04T10:57:32;20.40;;;10.97;;
60243;SDS011;46106;51.468;5.814;2024-02-04T10:59:59;21.05;;;12.52;;
60243;SDS011;46106;51.468;5.814;2024-02-04T11:02:29;23.10;;;10.95;;
60243;SDS011;46106;51.468;5.814;2024-02-04T11:04:58;24.05;;;11.57;;
60243;SDS011;46106;51.468;5.814;2024-02-04T11:07:26;22.27;;;11.75;;
60243;SDS011;46106;51.468;5.814;2024-02-04T11:09:56;26.73;;;11.43;;
60243;SDS011;46106;51.468;5.814;2024-02-04T11:12:22;19.92;;;11.18;;
60243;SDS011;46106;51.468;5.814;2024-02-04T11:14:51;19.38;;;11.05;;
60243;SDS011;46106;51.468;5.814;2024-02-04T11:20:21;17.38;;;10.80;;
60243;SDS011;46106;51.468;5.814;2024-02-04T11:25:48;25.60;;;10.98;;
60243;SDS011;46106;51.468;5.814;2024-02-04T11:28:16;21.83;;;11.05;;
60243;SDS011;46106;51.468;5.814;2024-02-04T11:30:44;17.90;;;10.70;;
60243;SDS011;46106;51.468;5.814;2024-02-04T11:33:11;20.10;;;10.05;;
60243;SDS011;46106;51.468;5.814;2024-02-04T11:35:38;19.17;;;10.25;;
60243;SDS011;46106;51.468;5.814;2024-02-04T11:38:04;20.67;;;9.70;;
60243;SDS011;46106;51.468;5.814;2024-02-04T11:40:30;18.77;;;9.60;;
60243;SDS011;46106;51.468;5.814;2024-02-04T11:45:40;16.77;;;9.73;;
60243;SDS011;46106;51.468;5.814;2024-02-04T11:48:07;15.40;;;9.13;;
60243;SDS011;46106;51.468;5.814;2024-02-04T11:50:35;21.45;;;10.27;;
60243;SDS011;46106;51.468;5.814;2024-02-04T11:53:05;21.65;;;11.45;;
60243;SDS011;46106;51.468;5.814;2024-02-04T11:55:39;18.13;;;10.23;;
60243;SDS011;46106;51.468;5.814;2024-02-04T11:58:06;20.38;;;10.90;;
60243;SDS011;46106;51.468;5.814;2024-02-04T12:00:33;19.80;;;11.43;;
60243;SDS011;46106;51.468;5.814;2024-02-04T12:03:03;16.63;;;10.55;;
60243;SDS011;46106;51.468;5.814;2024-02-04T12:05:36;20.80;;;10.38;;
60243;SDS011;46106;51.468;5.814;2024-02-04T12:08:04;20.70;;;10.98;;
60243;SDS011;46106;51.468;5.814;2024-02-04T12:10:32;19.00;;;10.25;;
60243;SDS011;46106;51.468;5.814;2024-02-04T12:12:59;18.52;;;10.48;;
60243;SDS011;46106;51.468;5.814;2024-02-04T12:15:27;22.02;;;11.00;;
60243;SDS011;46106;51.468;5.814;2024-02-04T12:17:53;17.90;;;9.70;;
60243;SDS011;46106;51.468;5.814;2024-02-04T12:20:20;24.73;;;10.88;;
60243;SDS011;46106;51.468;5.814;2024-02-04T12:22:46;20.20;;;10.38;;
60243;SDS011;46106;51.468;5.814;2024-02-04T12:25:14;19.08;;;10.43;;
60243;SDS011;46106;51.468;5.814;2024-02-04T12:27:41;19.98;;;12.43;;
60243;SDS011;46106;51.468;5.814;2024-02-04T12:30:07;22.15;;;13.38;;
60243;SDS011;46106;51.468;5.814;2024-02-04T12:32:34;21.50;;;13.48;;
60243;SDS011;46106;51.468;5.814;2024-02-04T12:35:00;19.45;;;12.55;;
60243;SDS011;46106;51.468;5.814;2024-02-04T12:37:27;33.17;;;15.15;;
60243;SDS011;46106;51.468;5.814;2024-02-04T12:39:55;22.80;;;14.30;;
60243;SDS011;46106;51.468;5.814;2024-02-04T12:42:21;28.50;;;15.32;;
60243;SDS011;46106;51.468;5.814;2024-02-04T12:44:47;27.02;;;15.00;;
60243;SDS011;46106;51.468;5.814;2024-02-04T12:47:13;28.42;;;14.80;;
60243;SDS011;46106;51.468;5.814;2024-02-04T12:49:44;22.45;;;14.18;;
60243;SDS011;46106;51.468;5.814;2024-02-04T12:52:11;22.58;;;14.45;;
60243;SDS011;46106;51.468;5.814;2024-02-04T12:54:40;26.38;;;14.20;;
60243;SDS011;46106;51.468;5.814;2024-02-04T12:57:07;26.17;;;14.45;;
60243;SDS011;46106;51.468;5.814;2024-02-04T12:59:36;26.55;;;13.75;;
60243;SDS011;46106;51.468;5.814;2024-02-04T13:02:03;21.90;;;14.40;;
60243;SDS011;46106;51.468;5.814;2024-02-04T13:04:36;24.58;;;14.32;;
60243;SDS011;46106;51.468;5.814;2024-02-04T13:07:13;30.10;;;13.32;;
60243;SDS011;46106;51.468;5.814;2024-02-04T13:09:40;24.95;;;13.88;;
60243;SDS011;46106;51.468;5.814;2024-02-04T13:12:07;24.67;;;13.60;;
60243;SDS011;46106;51.468;5.814;2024-02-04T13:14:34;23.08;;;12.27;;
60243;SDS011;46106;51.468;5.814;2024-02-04T13:17:01;25.55;;;13.68;;
60243;SDS011;46106;51.468;5.814;2024-02-04T13:19:34;25.50;;;12.68;;
60243;SDS011;46106;51.468;5.814;2024-02-04T13:22:01;25.88;;;13.48;;
60243;SDS011;46106;51.468;5.814;2024-02-04T13:24:33;28.10;;;13.63;;
60243;SDS011;46106;51.468;5.814;2024-02-04T13:27:02;20.75;;;12.10;;
60243;SDS011;46106;51.468;5.814;2024-02-04T13:29:32;20.90;;;12.40;;
60243;SDS011;46106;51.468;5.814;2024-02-04T13:31:59;17.88;;;11.57;;
60243;SDS011;46106;51.468;5.814;2024-02-04T13:34:25;22.05;;;11.57;;
60243;SDS011;46106;51.468;5.814;2024-02-04T13:36:50;23.20;;;11.93;;
60243;SDS011;46106;51.468;5.814;2024-02-04T13:39:16;15.77;;;10.60;;
60243;SDS011;46106;51.468;5.814;2024-02-04T13:41:42;21.48;;;13.05;;
60243;SDS011;46106;51.468;5.814;2024-02-04T13:44:09;20.42;;;10.82;;
60243;SDS011;46106;51.468;5.814;2024-02-04T13:46:35;19.63;;;10.70;;
60243;SDS011;46106;51.468;5.814;2024-02-04T13:49:01;15.65;;;10.43;;
60243;SDS011;46106;51.468;5.814;2024-02-04T13:51:27;16.20;;;9.82;;
60243;SDS011;46106;51.468;5.814;2024-02-04T13:53:53;14.13;;;9.90;;
60243;SDS011;46106;51.468;5.814;2024-02-04T13:56:18;15.95;;;10.40;;
60243;SDS011;46106;51.468;5.814;2024-02-04T13:58:44;20.17;;;10.05;;
60243;SDS011;46106;51.468;5.814;2024-02-04T14:01:10;18.20;;;9.95;;
60243;SDS011;46106;51.468;5.814;2024-02-04T14:03:35;16.52;;;9.85;;
60243;SDS011;46106;51.468;5.814;2024-02-04T14:06:03;12.80;;;9.52;;
60243;SDS011;46106;51.468;5.814;2024-02-04T14:08:29;11.88;;;9.00;;
60243;SDS011;46106;51.468;5.814;2024-02-04T14:10:55;13.48;;;9.57;;
60243;SDS011;46106;51.468;5.814;2024-02-04T14:13:22;12.75;;;9.98;;
60243;SDS011;46106;51.468;5.814;2024-02-04T14:15:47;15.68;;;9.68;;
60243;SDS011;46106;51.468;5.814;2024-02-04T14:18:13;12.30;;;8.98;;
60243;SDS011;46106;51.468;5.814;2024-02-04T14:20:39;13.25;;;9.05;;
60243;SDS011;46106;51.468;5.814;2024-02-04T14:23:05;13.52;;;8.85;;
60243;SDS011;46106;51.468;5.814;2024-02-04T14:25:30;15.27;;;10.05;;
60243;SDS011;46106;51.468;5.814;2024-02-04T14:27:56;18.35;;;10.00;;
60243;SDS011;46106;51.468;5.814;2024-02-04T14:30:22;12.55;;;8.55;;
60243;SDS011;46106;51.468;5.814;2024-02-04T14:32:48;18.55;;;9.30;;